Taichung, Taiwan

1:08 PM CST on December 29, 2014 (GMT +0800)
ITAIWAND2 | Change Station
CLOSE
Current Station
Personal Weather Station
Location: Dali, Taichung / Taiwan
Elevation: 200 ft
Nearby Weather Stations

Elev 200 ft 24.11 °N, 120.68 °E | Updated 3 minutes ago

Partly Cloudy
Partly Cloudy
68.3 °F
Feels Like 68.3 °F
N
4.0
Wind Variable Wind from NE
Gusts 10.0 mph

Today
High -- | Low -- °F
--% Chance of Precip.
Yesterday
High -- | Low -- °F
Precip. -- in
6:39 AM 5:18 PM
First Quarter, 55% visible
Pressure 30.04 in
Visibility 5.6 miles
Clouds Few 1000 ft
Dew Point 41 °F
Humidity 37%
Rainfall 0.00 in
Snow Depth Not available.
UV 7 out of 12
Pollen Not available.
Air Quality Not available.
Flu Activity Not available.
METAR RCMQ 290430Z 36015G25KT 9000 FEW010 17/07 Q1017 RMK A3004

More Conditions Fewer Conditions

Pressure 30.04 in
Visibility 5.6 miles
Clouds Few 1000 ft
Dew Point 41 °F
Humidity 37%
Rainfall 0.00 in
Snow Depth Not available.
UV 7 out of 12
Pollen Not available.
Air Quality Not available.
Flu Activity Not available.
METAR RCMQ 290430Z 36015G25KT 9000 FEW010 17/07 Q1017 RMK A3004

More Conditions Fewer Conditions

10-Day Weather Forecast

Almanac

Astronomy

Dec. 29, 2014 Rise Set
Actual Time
Civil Twilight
Nautical Twilight
Astronomical Twilight
Moon
Length of Visible Light
Length of Day
Tomorrow will be .
, % of the Moon is Illuminated

Today's Extremes

Country Highs Country Lows

Community

WunderPhotos

Upload Photos

1,781,529 photos uploaded!

WunderBlogs® & News

Nearby

Air Quality

  Air Quality AQ Index Pollutant
Not available.

Snow Depth

Station Depth Elevation

Earthquake Activity

City Distance Mag. Time & Date
Minimum magnitude displayed is 2.5.

Coastal Water Temperatures

Place Temperature

Nearby Weather Stations